Time;durP1;ratioP1;P1;durP2;ratioP2;P2;SDS_P1;SDS_P2;PMS_P1;PMS_P2;Temp;Humidity;BMP_temperature;BMP_pressure;BME280_temperature;BME280_humidity;BME280_pressure;Samples;Min_cycle;Max_cycle;Signal;HPM_P1;HPM_P2
2024/03/14 00:01:00;;;;;;;0.68;0.50;;;11.30;99.90;;;;;;4984340;28;20448;-76
2024/03/14 00:03:28;;;;;;;0.73;0.50;;;11.30;99.90;;;;;;4983724;28;20253;-76
2024/03/14 00:05:55;;;;;;;0.90;0.50;;;11.30;99.90;;;;;;4984727;28;20100;-76
2024/03/14 00:08:22;;;;;;;0.43;0.40;;;11.30;99.90;;;;;;4983371;28;20104;-76
2024/03/14 00:10:51;;;;;;;0.95;0.40;;;11.30;99.90;;;;;;4984546;28;20060;-76
2024/03/14 00:13:18;;;;;;;0.30;0.30;;;11.30;99.90;;;;;;4966554;28;20511;-76
2024/03/14 00:15:45;;;;;;;0.30;0.30;;;11.30;99.90;;;;;;5001561;28;20112;-76
2024/03/14 00:18:12;;;;;;;1.10;0.43;;;11.30;99.90;;;;;;4984039;28;20049;-76
2024/03/14 00:20:42;;;;;;;0.35;0.35;;;11.30;99.90;;;;;;4965676;28;20552;-75
2024/03/14 00:23:09;;;;;;;0.38;0.38;;;11.20;99.90;;;;;;4970861;28;20129;-76
2024/03/14 00:25:36;;;;;;;0.60;0.30;;;11.20;99.90;;;;;;4987329;28;20050;-75
2024/03/14 00:28:03;;;;;;;0.30;0.30;;;11.20;99.90;;;;;;5001451;28;20045;-77
2024/03/14 00:30:30;;;;;;;0.60;0.55;;;11.20;99.90;;;;;;4983261;28;20053;-76
2024/03/14 00:32:59;;;;;;;0.30;0.30;;;11.20;99.90;;;;;;4999227;28;20065;-76
2024/03/14 00:35:27;;;;;;;0.32;0.30;;;11.20;99.90;;;;;;5001352;28;20068;-76
2024/03/14 00:37:54;;;;;;;0.30;0.30;;;11.20;99.90;;;;;;4997953;28;20057;-76
2024/03/14 00:40:22;;;;;;;0.60;0.40;;;11.20;99.90;;;;;;4999600;28;20175;-76
2024/03/14 00:42:49;;;;;;;1.02;0.43;;;11.20;99.90;;;;;;4967706;28;20058;-76
2024/03/14 00:45:19;;;;;;;0.40;0.40;;;11.20;99.90;;;;;;4984149;28;20050;-76
2024/03/14 00:47:46;;;;;;;0.80;0.40;;;11.20;99.90;;;;;;4987538;28;20042;-75
2024/03/14 00:50:13;;;;;;;0.60;0.40;;;11.10;99.90;;;;;;5004385;28;20060;-76
2024/03/14 00:52:40;;;;;;;0.80;0.52;;;11.10;99.90;;;;;;4970684;28;20184;-76
2024/03/14 00:55:09;;;;;;;0.28;0.28;;;11.10;99.90;;;;;;4970390;28;20536;-76
2024/03/14 00:57:36;;;;;;;0.93;0.43;;;11.10;99.90;;;;;;4986854;28;20053;-75
2024/03/14 01:00:11;;;;;;;0.50;0.40;;;11.10;99.90;;;;;;5002424;28;20152;-76
2024/03/14 01:02:39;;;;;;;1.25;0.50;;;11.10;99.90;;;;;;4984326;28;20485;-76
2024/03/14 01:05:06;;;;;;;0.47;0.47;;;11.10;99.90;;;;;;4983885;28;20058;-76
2024/03/14 01:07:33;;;;;;;0.70;0.70;;;11.00;99.90;;;;;;5002555;28;20108;-76
2024/03/14 01:10:00;;;;;;;2.08;0.73;;;11.00;99.90;;;;;;4989172;28;20050;-76
2024/03/14 01:12:27;;;;;;;0.80;0.65;;;11.00;99.90;;;;;;4990493;28;20049;-75
2024/03/14 01:14:54;;;;;;;0.70;0.55;;;11.00;99.90;;;;;;4988451;28;20081;-76
2024/03/14 01:17:21;;;;;;;1.08;0.50;;;11.00;99.90;;;;;;4972983;28;20076;-76
2024/03/14 01:19:48;;;;;;;1.27;0.70;;;10.90;99.90;;;;;;4987359;28;20061;-75
2024/03/14 01:22:15;;;;;;;0.55;0.47;;;10.90;99.90;;;;;;4987245;28;20049;-75
2024/03/14 01:24:41;;;;;;;0.40;0.40;;;10.90;99.90;;;;;;4972662;28;20579;-76
2024/03/14 01:27:09;;;;;;;1.40;0.80;;;10.90;99.90;;;;;;4990039;28;20053;-76
2024/03/14 01:29:37;;;;;;;1.27;0.65;;;10.80;99.90;;;;;;4988628;28;20075;-75
2024/03/14 01:32:04;;;;;;;1.70;0.70;;;10.80;99.90;;;;;;4989882;28;20457;-75
2024/03/14 01:34:31;;;;;;;0.30;0.25;;;10.80;99.90;;;;;;4989822;28;20045;-75
2024/03/14 01:37:03;;;;;;;0.50;0.40;;;10.80;99.90;;;;;;4974383;28;20054;-75
2024/03/14 01:39:31;;;;;;;0.45;0.45;;;10.70;99.90;;;;;;4990109;28;20042;-76
2024/03/14 01:41:58;;;;;;;0.80;0.60;;;10.70;99.90;;;;;;4990278;28;20057;-75
2024/03/14 01:44:37;;;;;;;1.88;0.70;;;10.70;99.90;;;;;;4988646;28;20616;-76
2024/03/14 01:47:04;;;;;;;0.65;0.52;;;10.70;99.90;;;;;;4990186;28;20452;-75
2024/03/14 01:49:32;;;;;;;1.55;0.60;;;10.70;99.90;;;;;;4990235;28;20046;-75
2024/03/14 01:51:59;;;;;;;0.70;0.45;;;10.70;99.90;;;;;;4974092;28;20132;-75
2024/03/14 01:54:26;;;;;;;0.68;0.43;;;10.60;99.90;;;;;;4972820;28;20508;-75
2024/03/14 01:56:59;;;;;;;0.55;0.52;;;10.60;99.90;;;;;;5006279;28;20133;-75
2024/03/14 01:59:27;;;;;;;0.90;0.50;;;10.60;99.90;;;;;;4972911;28;20497;-75
2024/03/14 02:01:55;;;;;;;0.47;0.47;;;10.60;99.90;;;;;;4973747;28;20603;-75
2024/03/14 02:04:27;;;;;;;0.40;0.30;;;10.60;99.90;;;;;;4989046;28;20056;-75
2024/03/14 02:07:13;;;;;;;0.63;0.50;;;10.60;99.90;;;;;;4989812;28;20108;-75
2024/03/14 02:09:40;;;;;;;0.30;0.30;;;10.60;99.90;;;;;;4973347;28;20510;-75
2024/03/14 02:12:08;;;;;;;0.35;0.30;;;10.60;99.90;;;;;;4973718;28;20061;-75
2024/03/14 02:14:36;;;;;;;0.90;0.30;;;10.60;99.90;;;;;;4987455;28;20053;-75
2024/03/14 02:17:05;;;;;;;0.43;0.30;;;10.50;99.90;;;;;;4989878;28;20053;-75
2024/03/14 02:19:32;;;;;;;0.90;0.50;;;10.50;99.90;;;;;;4989511;28;20659;-75
2024/03/14 02:22:02;;;;;;;0.47;0.47;;;10.50;99.90;;;;;;4973121;28;20135;-75
2024/03/14 02:24:29;;;;;;;0.75;0.52;;;10.50;99.90;;;;;;4988899;28;20049;-75
2024/03/14 02:26:56;;;;;;;1.00;0.40;;;10.50;99.90;;;;;;4972937;28;20096;-75
2024/03/14 02:29:23;;;;;;;0.85;0.70;;;10.50;99.90;;;;;;4988129;28;20046;-75
2024/03/14 02:31:53;;;;;;;0.45;0.43;;;10.50;99.90;;;;;;4991787;28;20057;-76
2024/03/14 02:34:20;;;;;;;0.50;0.40;;;10.50;99.90;;;;;;4969386;28;20062;-75
2024/03/14 02:36:47;;;;;;;0.40;0.40;;;10.40;99.90;;;;;;4985461;28;20053;-75
2024/03/14 02:39:14;;;;;;;0.30;0.30;;;10.30;99.90;;;;;;4989312;28;20050;-75
2024/03/14 02:41:41;;;;;;;0.55;0.50;;;10.30;99.90;;;;;;4989413;28;20047;-75
2024/03/14 02:44:15;;;;;;;0.60;0.35;;;10.30;99.90;;;;;;4992621;28;20103;-75
2024/03/14 02:46:42;;;;;;;0.30;0.30;;;10.20;99.90;;;;;;4979110;28;20097;-77
2024/03/14 02:49:12;;;;;;;0.28;0.28;;;10.20;99.90;;;;;;4988928;28;20050;-75
2024/03/14 02:51:39;;;;;;;0.25;0.25;;;10.10;1.00;;;;;;4988128;28;20058;-75
2024/03/14 02:54:06;;;;;;;0.60;0.40;;;10.10;99.90;;;;;;4991792;28;20065;-75
2024/03/14 02:56:33;;;;;;;0.47;0.30;;;10.10;1.00;;;;;;4974306;28;20054;-75
2024/03/14 02:59:00;;;;;;;1.33;0.40;;;10.10;1.00;;;;;;4991044;28;20054;-75
2024/03/14 03:01:32;;;;;;;0.30;0.30;;;10.10;1.00;;;;;;4989729;28;20046;-75
2024/03/14 03:03:59;;;;;;;0.20;0.20;;;10.10;1.00;;;;;;4991096;28;20509;-76
2024/03/14 03:06:26;;;;;;;0.52;0.25;;;10.00;1.00;;;;;;4972650;28;20054;-75
2024/03/14 03:08:53;;;;;;;0.30;0.30;;;10.00;1.00;;;;;;4974653;28;20053;-75
2024/03/14 03:11:20;;;;;;;0.38;0.38;;;10.00;1.00;;;;;;4989907;28;20100;-75
2024/03/14 03:13:47;;;;;;;0.52;0.30;;;10.00;1.00;;;;;;4990553;28;20104;-75
2024/03/14 03:16:14;;;;;;;0.20;0.20;;;9.90;1.00;;;;;;4990123;28;20053;-75
2024/03/14 03:18:42;;;;;;;0.50;0.32;;;9.90;1.00;;;;;;5007972;28;20081;-75
2024/03/14 03:21:09;;;;;;;0.30;0.30;;;9.90;1.00;;;;;;4988512;28;20046;-76
2024/03/14 03:23:36;;;;;;;0.32;0.30;;;9.90;1.00;;;;;;5007480;28;20050;-75
2024/03/14 03:26:06;;;;;;;0.20;0.20;;;9.90;1.00;;;;;;4989450;28;20057;-75
2024/03/14 03:28:33;;;;;;;0.25;0.25;;;9.80;1.00;;;;;;4990661;28;20072;-75
2024/03/14 03:31:08;;;;;;;0.20;0.20;;;9.80;1.00;;;;;;4973285;28;20137;-76
2024/03/14 03:33:35;;;;;;;0.32;0.30;;;9.80;2.60;;;;;;5007462;28;20153;-75
2024/03/14 03:36:04;;;;;;;0.17;0.15;;;9.80;29.70;;;;;;4987900;28;20158;-75
2024/03/14 03:38:33;;;;;;;0.43;0.30;;;9.80;53.30;;;;;;4973914;28;20054;-75
2024/03/14 03:41:01;;;;;;;0.47;0.38;;;9.80;99.90;;;;;;4989548;28;20413;-75
2024/03/14 03:43:28;;;;;;;0.57;0.30;;;9.80;99.90;;;;;;4990024;28;20165;-77
2024/03/14 03:45:57;;;;;;;0.57;0.40;;;9.80;99.90;;;;;;4989563;28;20148;-75
2024/03/14 03:48:24;;;;;;;0.50;0.38;;;9.80;99.90;;;;;;5003461;28;20042;-76
2024/03/14 03:50:51;;;;;;;0.43;0.43;;;9.70;99.90;;;;;;5000512;28;20050;-75
2024/03/14 03:53:19;;;;;;;0.45;0.45;;;9.80;99.90;;;;;;4973001;28;20116;-75
2024/03/14 03:55:47;;;;;;;0.28;0.28;;;9.70;99.90;;;;;;4988867;28;20054;-75
2024/03/14 03:58:14;;;;;;;0.30;0.30;;;9.70;99.90;;;;;;4973622;28;20049;-75
2024/03/14 04:00:46;;;;;;;0.45;0.35;;;9.70;99.90;;;;;;5005276;28;20081;-75
2024/03/14 04:03:15;;;;;;;0.45;0.40;;;9.70;1.00;;;;;;5006167;28;20045;-75
2024/03/14 04:05:45;;;;;;;1.05;0.50;;;9.70;1.00;;;;;;4971571;28;20460;-75
2024/03/14 04:08:15;;;;;;;0.38;0.38;;;9.70;1.00;;;;;;4990156;28;20125;-78
2024/03/14 04:10:42;;;;;;;0.45;0.40;;;9.70;1.00;;;;;;4989542;28;20477;-75
2024/03/14 04:13:10;;;;;;;0.43;0.32;;;9.60;1.00;;;;;;4989890;28;20242;-75
2024/03/14 04:15:38;;;;;;;0.50;0.20;;;9.60;1.00;;;;;;4988916;28;20085;-75
2024/03/14 04:18:06;;;;;;;0.73;0.30;;;9.70;1.00;;;;;;4989900;28;20050;-75
2024/03/14 04:20:37;;;;;;;0.40;0.25;;;9.70;99.90;;;;;;4987766;28;20096;-75
2024/03/14 04:23:05;;;;;;;0.30;0.30;;;9.70;99.90;;;;;;4990480;28;20038;-75
2024/03/14 04:25:32;;;;;;;2.03;0.45;;;9.70;99.90;;;;;;4988799;28;20115;-75
2024/03/14 04:27:59;;;;;;;0.57;0.40;;;9.70;99.90;;;;;;4989166;28;20081;-75
2024/03/14 04:30:27;;;;;;;0.68;0.38;;;9.60;99.90;;;;;;4988981;28;20065;-75
2024/03/14 04:32:56;;;;;;;0.20;0.20;;;9.60;99.90;;;;;;4989259;28;20061;-75
2024/03/14 04:35:24;;;;;;;0.20;0.20;;;9.60;99.90;;;;;;4986651;28;20137;-75
2024/03/14 04:37:51;;;;;;;0.40;0.40;;;9.60;99.90;;;;;;5006491;28;20053;-75
2024/03/14 04:40:19;;;;;;;0.40;0.30;;;9.50;99.90;;;;;;4988881;28;20049;-75
2024/03/14 04:42:46;;;;;;;0.30;0.30;;;9.50;99.90;;;;;;4973549;28;20081;-75
2024/03/14 04:45:17;;;;;;;0.30;0.30;;;9.50;99.90;;;;;;4991928;28;20078;-75
2024/03/14 04:47:47;;;;;;;0.30;0.20;;;9.50;99.90;;;;;;4993649;28;20050;-75
2024/03/14 04:50:14;;;;;;;0.20;0.20;;;9.50;99.90;;;;;;4991936;28;20061;-75
2024/03/14 04:52:41;;;;;;;0.55;0.35;;;9.50;99.90;;;;;;4993267;28;20061;-75
2024/03/14 04:55:09;;;;;;;0.50;0.20;;;9.40;99.90;;;;;;4992862;28;20061;-75
2024/03/14 04:57:36;;;;;;;0.25;0.25;;;9.40;99.90;;;;;;5009197;28;20054;-75
2024/03/14 05:00:11;;;;;;;0.47;0.30;;;9.40;99.90;;;;;;5008650;28;20567;-75
2024/03/14 05:02:38;;;;;;;0.32;0.32;;;9.50;99.90;;;;;;4992646;28;20046;-75
2024/03/14 05:05:09;;;;;;;0.20;0.20;;;9.40;99.90;;;;;;5007861;28;20046;-75
2024/03/14 05:07:37;;;;;;;0.30;0.30;;;9.40;99.90;;;;;;4977136;28;20056;-75
2024/03/14 05:10:08;;;;;;;0.30;0.22;;;9.40;99.90;;;;;;4976322;28;20133;-75
2024/03/14 05:12:35;;;;;;;0.30;0.30;;;9.40;99.90;;;;;;4993388;28;20131;-75
2024/03/14 05:15:07;;;;;;;0.40;0.32;;;9.30;1.00;;;;;;4992409;28;20120;-75
2024/03/14 05:17:36;;;;;;;0.30;0.30;;;9.30;1.00;;;;;;4993819;28;20061;-76
2024/03/14 05:20:05;;;;;;;0.70;0.40;;;9.30;1.00;;;;;;5009714;28;20081;-75
2024/03/14 05:22:32;;;;;;;0.30;0.30;;;9.30;99.90;;;;;;4992726;28;20103;-75
2024/03/14 05:25:04;;;;;;;0.40;0.40;;;9.30;99.90;;;;;;5008275;28;20046;-75
2024/03/14 05:27:31;;;;;;;0.50;0.50;;;9.20;1.00;;;;;;4993256;28;20065;-76
2024/03/14 05:29:58;;;;;;;0.47;0.30;;;9.20;1.00;;;;;;5009734;28;20050;-75
2024/03/14 05:32:27;;;;;;;0.52;0.40;;;9.20;1.00;;;;;;4975457;28;20116;-76
2024/03/14 05:34:55;;;;;;;1.23;0.70;;;9.20;99.90;;;;;;5009164;28;20088;-75
2024/03/14 05:37:26;;;;;;;0.40;0.40;;;9.20;99.90;;;;;;4990327;28;20651;-76
2024/03/14 05:39:53;;;;;;;0.55;0.43;;;9.20;86.70;;;;;;4992665;28;20050;-75
2024/03/14 05:42:20;;;;;;;0.57;0.52;;;9.20;99.90;;;;;;5009254;28;20620;-75
2024/03/14 05:44:48;;;;;;;0.50;0.50;;;9.20;1.00;;;;;;4991981;28;20042;-75
2024/03/14 05:47:19;;;;;;;0.73;0.70;;;9.20;55.10;;;;;;5009017;28;20075;-75
2024/03/14 05:49:46;;;;;;;0.82;0.55;;;9.20;1.00;;;;;;4986664;28;20050;-74
2024/03/14 05:52:13;;;;;;;0.65;0.63;;;9.20;1.00;;;;;;4969087;28;20442;-74
2024/03/14 05:54:40;;;;;;;1.88;0.70;;;9.20;59.40;;;;;;4989777;28;20140;-77
2024/03/14 05:57:07;;;;;;;1.70;0.70;;;9.30;99.90;;;;;;5007309;28;20057;-79
2024/03/14 05:59:37;;;;;;;0.95;0.85;;;9.30;99.90;;;;;;4972955;28;20046;-75
2024/03/14 06:02:07;;;;;;;1.00;0.90;;;9.30;99.90;;;;;;5003604;28;20054;-76
2024/03/14 06:04:35;;;;;;;0.77;0.73;;;9.30;99.90;;;;;;4998891;28;20045;-75
2024/03/14 06:07:02;;;;;;;0.70;0.55;;;9.30;99.90;;;;;;4991277;28;20054;-75
2024/03/14 06:09:39;;;;;;;2.75;1.40;;;9.30;1.00;;;;;;4988145;28;20046;-76
2024/03/14 06:12:08;;;;;;;1.38;0.93;;;9.30;99.90;;;;;;4983528;28;20406;-75
2024/03/14 06:14:35;;;;;;;1.08;0.80;;;9.30;1.00;;;;;;5001510;28;20083;-76
2024/03/14 06:17:03;;;;;;;0.93;0.75;;;9.30;1.00;;;;;;4969927;28;20512;-75
2024/03/14 06:19:31;;;;;;;1.13;1.00;;;9.30;41.50;;;;;;4988681;28;20057;-75
2024/03/14 06:21:58;;;;;;;2.05;1.10;;;9.30;99.90;;;;;;5010801;28;20535;-78
2024/03/14 06:24:25;;;;;;;1.35;1.02;;;9.30;99.90;;;;;;4987077;28;20046;-76
2024/03/14 06:26:52;;;;;;;1.70;1.10;;;9.40;99.90;;;;;;4969415;28;20547;-74
2024/03/14 06:29:22;;;;;;;1.42;1.17;;;9.40;99.90;;;;;;4981184;28;20050;-75
2024/03/14 06:31:49;;;;;;;1.02;0.93;;;9.40;99.90;;;;;;4986387;28;21504;-75
2024/03/14 06:34:17;;;;;;;2.08;1.20;;;9.40;99.90;;;;;;4989087;28;20112;-75
2024/03/14 06:36:44;;;;;;;1.45;1.05;;;9.40;99.90;;;;;;4970277;28;20424;-75
2024/03/14 06:39:11;;;;;;;1.38;0.90;;;9.40;99.90;;;;;;5005319;28;20076;-80
2024/03/14 06:41:38;;;;;;;1.30;1.08;;;9.50;99.90;;;;;;4984924;28;20061;-76
2024/03/14 06:44:06;;;;;;;1.35;1.13;;;9.50;99.90;;;;;;4980987;28;20112;-83
2024/03/14 06:46:34;;;;;;;1.70;1.30;;;9.50;1.00;;;;;;4964323;28;20137;-76
2024/03/14 06:49:04;;;;;;;1.80;1.27;;;9.50;1.00;;;;;;4950253;28;20041;-76
2024/03/14 06:51:31;;;;;;;1.75;1.30;;;9.50;1.00;;;;;;4980918;28;20050;-75
2024/03/14 06:53:58;;;;;;;1.55;1.27;;;9.60;1.00;;;;;;4998689;28;20100;-76
2024/03/14 06:56:29;;;;;;;1.20;1.00;;;9.50;1.00;;;;;;4963225;28;20077;-76
2024/03/14 06:58:56;;;;;;;1.35;1.20;;;9.60;1.00;;;;;;4997969;28;20517;-74
2024/03/14 07:01:23;;;;;;;1.55;1.08;;;9.60;1.00;;;;;;4981635;28;20042;-76
2024/03/14 07:03:51;;;;;;;2.25;1.52;;;9.60;1.00;;;;;;4980447;28;20399;-76
2024/03/14 07:06:23;;;;;;;1.20;1.00;;;9.60;1.00;;;;;;4979522;28;20794;-77
2024/03/14 07:08:56;;;;;;;1.33;1.10;;;9.60;1.00;;;;;;4980742;28;20049;-76
2024/03/14 07:11:26;;;;;;;2.38;1.40;;;9.70;1.00;;;;;;4980514;28;20133;-76
2024/03/14 07:13:56;;;;;;;2.03;1.77;;;9.70;1.00;;;;;;4996394;28;20871;-78
2024/03/14 07:16:23;;;;;;;1.77;1.25;;;9.80;10.70;;;;;;5012173;28;20134;-76
2024/03/14 07:18:51;;;;;;;1.50;1.40;;;9.80;2.60;;;;;;4979093;28;20476;-76
2024/03/14 07:21:18;;;;;;;1.50;1.40;;;9.90;1.00;;;;;;4963317;28;20538;-76
2024/03/14 07:23:48;;;;;;;1.77;1.27;;;10.00;1.00;;;;;;4982077;28;20125;-76
2024/03/14 07:26:20;;;;;;;1.73;1.20;;;10.00;1.00;;;;;;4981918;28;20486;-76
2024/03/14 07:28:48;;;;;;;0.88;0.88;;;10.10;99.90;;;;;;4997444;28;20049;-75
2024/03/14 07:31:14;;;;;;;1.70;1.00;;;10.20;99.90;;;;;;4999130;28;20088;-76
2024/03/14 07:33:45;;;;;;;1.63;1.10;;;10.30;80.50;;;;;;4981767;28;20136;-76
2024/03/14 07:36:15;;;;;;;1.00;0.90;;;10.30;1.00;;;;;;4980996;28;20295;-75
2024/03/14 07:38:43;;;;;;;1.30;1.13;;;10.40;99.90;;;;;;4981268;28;20616;-76
2024/03/14 07:41:13;;;;;;;1.00;0.90;;;10.40;99.90;;;;;;4981789;28;20084;-76
2024/03/14 07:43:40;;;;;;;1.10;1.00;;;10.50;1.00;;;;;;4981699;28;20503;-76
2024/03/14 07:46:08;;;;;;;0.73;0.68;;;10.50;99.90;;;;;;4965458;28;20058;-76
2024/03/14 07:48:37;;;;;;;1.05;0.90;;;10.50;99.90;;;;;;4981557;28;20058;-76
2024/03/14 07:51:07;;;;;;;0.75;0.63;;;10.60;1.00;;;;;;4996145;28;20060;-76
2024/03/14 07:53:34;;;;;;;1.08;0.80;;;10.70;1.00;;;;;;4997502;28;20054;-76
2024/03/14 07:56:01;;;;;;;1.20;0.90;;;10.70;83.10;;;;;;4981031;28;20050;-75
2024/03/14 07:58:28;;;;;;;0.77;0.63;;;10.80;99.90;;;;;;4981089;28;20065;-76
2024/03/14 08:00:55;;;;;;;0.80;0.65;;;10.90;99.90;;;;;;4980488;28;20329;-76
2024/03/14 08:03:22;;;;;;;0.75;0.50;;;11.00;99.90;;;;;;4980461;28;20081;-76
2024/03/14 08:05:50;;;;;;;1.25;0.85;;;11.00;99.90;;;;;;4979320;28;20081;-76
2024/03/14 08:08:17;;;;;;;1.05;0.85;;;11.10;99.90;;;;;;4980950;28;20049;-76
2024/03/14 08:10:52;;;;;;;1.05;0.80;;;11.20;1.00;;;;;;4982040;28;20116;-76
2024/03/14 08:13:22;;;;;;;1.38;0.68;;;11.20;1.00;;;;;;4980456;28;20563;-76
2024/03/14 08:15:52;;;;;;;1.60;0.88;;;11.30;99.90;;;;;;4980123;28;20045;-76
2024/03/14 08:18:21;;;;;;;1.08;0.82;;;11.40;99.90;;;;;;4981494;28;20082;-76
2024/03/14 08:20:50;;;;;;;0.88;0.80;;;11.40;99.90;;;;;;4979782;28;20132;-76
2024/03/14 08:23:17;;;;;;;1.08;0.80;;;11.50;58.00;;;;;;4980198;28;20054;-76
2024/03/14 08:25:43;;;;;;;0.82;0.70;;;11.60;1.00;;;;;;4980003;28;20049;-76
2024/03/14 08:28:11;;;;;;;0.55;0.55;;;11.70;1.00;;;;;;4979658;28;20145;-76
2024/03/14 08:30:39;;;;;;;0.55;0.52;;;11.80;1.00;;;;;;4980460;28;20158;-76
2024/03/14 08:33:09;;;;;;;1.40;0.70;;;11.80;1.00;;;;;;4981069;28;20069;-75
2024/03/14 08:35:42;;;;;;;2.08;1.05;;;11.90;99.90;;;;;;4979513;28;20081;-75
2024/03/14 08:38:13;;;;;;;1.20;0.88;;;12.00;99.90;;;;;;4998600;28;20069;-76
2024/03/14 08:40:41;;;;;;;1.35;0.73;;;12.10;99.90;;;;;;4980597;28;20512;-76
2024/03/14 08:43:11;;;;;;;0.60;0.40;;;12.20;99.90;;;;;;4980040;28;20664;-76
2024/03/14 08:45:39;;;;;;;1.27;0.80;;;12.30;99.90;;;;;;4964403;28;20644;-76
2024/03/14 08:48:09;;;;;;;0.77;0.50;;;12.40;99.90;;;;;;4980737;28;20057;-76
2024/03/14 08:50:40;;;;;;;1.20;0.75;;;12.40;99.90;;;;;;4978854;28;20155;-76
2024/03/14 08:53:09;;;;;;;1.05;0.80;;;12.40;99.90;;;;;;4980944;28;20080;-76
2024/03/14 08:55:39;;;;;;;1.38;0.70;;;12.50;99.90;;;;;;4963439;28;20041;-76
2024/03/14 08:58:08;;;;;;;0.77;0.50;;;12.60;99.90;;;;;;4994604;28;20050;-78
2024/03/14 09:00:35;;;;;;;0.70;0.68;;;12.60;99.90;;;;;;4979374;28;20602;-76
2024/03/14 09:03:03;;;;;;;0.88;0.65;;;12.60;99.90;;;;;;4979948;28;20072;-76
2024/03/14 09:05:32;;;;;;;1.40;0.80;;;12.70;99.90;;;;;;4978654;28;20049;-76
2024/03/14 09:07:59;;;;;;;0.70;0.55;;;12.80;99.90;;;;;;4979608;28;20176;-76
2024/03/14 09:10:26;;;;;;;1.48;0.60;;;12.80;99.90;;;;;;4979480;28;20050;-76
2024/03/14 09:12:54;;;;;;;1.38;0.88;;;12.90;99.90;;;;;;4995458;28;20112;-76
2024/03/14 09:15:22;;;;;;;2.15;0.73;;;13.00;99.90;;;;;;4979348;28;20062;-76
2024/03/14 09:17:50;;;;;;;1.10;0.77;;;13.00;99.90;;;;;;4980424;28;20058;-76
2024/03/14 09:20:19;;;;;;;2.65;0.70;;;13.00;99.90;;;;;;4979089;28;20081;-75
2024/03/14 09:22:53;;;;;;;1.73;0.75;;;13.10;99.90;;;;;;4981052;28;20053;-76
2024/03/14 09:25:24;;;;;;;1.00;0.80;;;13.10;99.90;;;;;;4976887;28;20129;-76
2024/03/14 09:27:52;;;;;;;1.88;0.80;;;13.10;99.90;;;;;;4995443;28;20096;-76
2024/03/14 09:30:21;;;;;;;0.70;0.50;;;13.10;99.90;;;;;;4997918;28;20061;-77
2024/03/14 09:32:50;;;;;;;0.90;0.63;;;13.10;99.90;;;;;;5001036;28;20088;-75
2024/03/14 09:35:25;;;;;;;0.80;0.70;;;13.20;99.90;;;;;;4995012;28;20133;-75
2024/03/14 09:37:54;;;;;;;1.40;0.98;;;13.20;99.90;;;;;;4982880;28;20141;-75
2024/03/14 09:40:21;;;;;;;1.00;0.80;;;13.20;99.90;;;;;;4981416;28;20042;-75
2024/03/14 09:42:58;;;;;;;0.68;0.60;;;13.20;99.90;;;;;;4983188;28;20100;-75
2024/03/14 09:45:25;;;;;;;1.25;0.65;;;13.30;99.90;;;;;;5000547;28;20124;-84
2024/03/14 09:47:55;;;;;;;1.08;0.70;;;13.30;99.90;;;;;;5001521;28;20085;-83
2024/03/14 09:50:25;;;;;;;0.70;0.60;;;13.30;99.90;;;;;;4988312;28;20141;-82
2024/03/14 09:52:55;;;;;;;1.13;0.68;;;13.40;99.90;;;;;;4977877;28;20155;-89
2024/03/14 09:55:30;;;;;;;0.70;0.60;;;13.50;99.90;;;;;;4969572;28;20053;-91
2024/03/14 09:58:01;;;;;;;0.98;0.50;;;13.50;99.90;;;;;;4974659;28;20429;-91
2024/03/14 10:00:35;;;;;;;0.50;0.50;;;13.60;99.90;;;;;;4961450;28;20096;-90
2024/03/14 10:03:10;;;;;;;0.90;0.63;;;13.70;99.90;;;;;;4986478;28;20097;-91
2024/03/14 10:05:42;;;;;;;0.85;0.60;;;13.80;99.90;;;;;;4975413;28;20050;-90
2024/03/14 10:08:11;;;;;;;0.80;0.55;;;13.80;99.90;;;;;;4973295;28;20062;-90
2024/03/14 10:10:38;;;;;;;1.40;0.73;;;13.90;99.90;;;;;;4990401;28;20046;-90
2024/03/14 10:13:05;;;;;;;0.90;0.50;;;13.90;99.90;;;;;;4960382;28;20061;-90
2024/03/14 10:15:37;;;;;;;0.73;0.50;;;14.00;99.90;;;;;;4978793;28;20476;-89
2024/03/14 10:18:08;;;;;;;0.75;0.60;;;14.10;99.90;;;;;;4992924;28;20068;-88
2024/03/14 10:20:40;;;;;;;0.75;0.57;;;14.10;99.90;;;;;;4973084;28;20062;-91
2024/03/14 10:23:27;;;;;;;0.52;0.50;;;14.20;99.90;;;;;;4951880;28;20061;-91
2024/03/14 10:25:55;;;;;;;1.23;0.65;;;14.30;99.90;;;;;;4992371;28;20049;-89
2024/03/14 10:28:28;;;;;;;0.73;0.50;;;14.30;99.90;;;;;;4992102;28;20085;-91
2024/03/14 10:31:02;;;;;;;1.27;0.90;;;14.40;99.90;;;;;;4993383;28;20104;-89
2024/03/14 10:33:30;;;;;;;1.85;0.70;;;14.40;99.90;;;;;;4970871;28;20054;-91
2024/03/14 10:36:01;;;;;;;0.60;0.57;;;14.40;99.90;;;;;;4968947;28;20138;-89
2024/03/14 10:38:35;;;;;;;1.35;0.70;;;14.50;99.90;;;;;;4969517;28;20133;-89
2024/03/14 10:41:05;;;;;;;1.55;1.00;;;14.50;99.90;;;;;;4952743;28;20047;-91
2024/03/14 10:43:39;;;;;;;1.23;0.73;;;14.70;99.90;;;;;;4966214;28;20149;-88
2024/03/14 10:46:13;;;;;;;1.17;0.60;;;14.70;99.90;;;;;;4987692;28;20561;-91
2024/03/14 10:48:44;;;;;;;1.00;0.60;;;14.80;99.90;;;;;;4987068;28;20055;-90
2024/03/14 10:51:14;;;;;;;0.83;0.60;;;14.90;99.90;;;;;;4985184;28;20051;-88
2024/03/14 10:53:45;;;;;;;1.02;0.70;;;15.00;99.90;;;;;;4970488;28;20134;-89
2024/03/14 10:56:20;;;;;;;0.70;0.40;;;15.10;99.90;;;;;;4967041;28;20059;-89
2024/03/14 10:58:49;;;;;;;1.00;0.50;;;15.20;99.90;;;;;;4967392;28;20051;-89
2024/03/14 11:01:24;;;;;;;0.85;0.63;;;15.30;99.60;;;;;;4966578;28;20082;-90
2024/03/14 11:03:56;;;;;;;0.80;0.68;;;15.40;99.90;;;;;;4997344;28;20319;-89
2024/03/14 11:06:49;;;;;;;0.63;0.50;;;15.40;99.90;;;;;;4985022;28;20306;-89
2024/03/14 11:09:24;;;;;;;0.65;0.60;;;15.50;95.00;;;;;;5002808;28;20050;-90
2024/03/14 11:11:55;;;;;;;0.50;0.40;;;15.60;86.60;;;;;;4955449;28;20050;-90
2024/03/14 11:14:53;;;;;;;1.20;0.60;;;15.80;88.30;;;;;;4971226;28;20051;-89
2024/03/14 11:17:20;;;;;;;0.63;0.50;;;15.90;88.10;;;;;;4970362;28;20145;-90
2024/03/14 11:19:59;;;;;;;1.20;0.80;;;15.90;72.60;;;;;;4987570;28;20498;-89
2024/03/14 11:22:26;;;;;;;0.85;0.50;;;16.00;76.10;;;;;;4972261;28;20047;-89
2024/03/14 11:24:53;;;;;;;0.57;0.50;;;15.90;64.40;;;;;;4985434;28;20074;-89
2024/03/14 11:27:21;;;;;;;1.13;0.80;;;15.90;62.50;;;;;;4980843;28;20046;-84
2024/03/14 11:29:48;;;;;;;0.93;0.60;;;16.00;64.70;;;;;;4959588;28;20522;-80
2024/03/14 11:32:22;;;;;;;0.50;0.45;;;16.10;95.90;;;;;;4967195;28;20066;-82
2024/03/14 11:34:50;;;;;;;0.80;0.50;;;16.10;65.50;;;;;;4986468;28;20038;-86
2024/03/14 11:37:19;;;;;;;1.17;0.50;;;16.20;61.60;;;;;;4982458;28;20046;-86
2024/03/14 11:39:49;;;;;;;0.47;0.38;;;16.30;77.60;;;;;;4982265;28;20528;-86
2024/03/14 11:42:21;;;;;;;1.10;0.60;;;16.30;44.00;;;;;;4982949;28;20398;-86
2024/03/14 11:44:49;;;;;;;0.68;0.50;;;16.30;45.60;;;;;;4984213;28;20769;-86
2024/03/14 11:47:40;;;;;;;0.88;0.60;;;16.30;44.70;;;;;;4983707;28;20458;-86
2024/03/14 11:50:08;;;;;;;0.75;0.57;;;16.40;42.30;;;;;;5001067;28;20752;-81
2024/03/14 11:52:40;;;;;;;1.02;0.88;;;16.40;35.40;;;;;;4976222;28;20081;-82
2024/03/14 11:55:11;;;;;;;1.05;0.60;;;16.60;34.40;;;;;;4962681;28;20069;-82
2024/03/14 11:57:50;;;;;;;0.57;0.57;;;16.60;31.50;;;;;;4977182;28;20062;-82
2024/03/14 12:00:26;;;;;;;0.95;0.50;;;16.70;25.40;;;;;;4978818;28;20054;-83
2024/03/14 12:02:54;;;;;;;1.10;0.75;;;16.80;29.70;;;;;;4978560;28;20349;-83
2024/03/14 12:05:25;;;;;;;0.88;0.60;;;17.00;36.80;;;;;;4977403;28;20485;-82
2024/03/14 12:07:54;;;;;;;0.85;0.60;;;17.50;27.60;;;;;;4962607;28;20054;-82
2024/03/14 12:10:22;;;;;;;0.40;0.40;;;17.80;22.70;;;;;;4977644;28;20054;-82
2024/03/14 12:12:54;;;;;;;0.52;0.45;;;18.10;15.00;;;;;;4958186;28;20053;-83
2024/03/14 12:15:24;;;;;;;1.17;0.63;;;18.20;14.10;;;;;;4946121;28;20413;-82
2024/03/14 12:17:57;;;;;;;0.88;0.60;;;18.40;8.10;;;;;;4962919;28;20061;-82
2024/03/14 12:20:25;;;;;;;0.45;0.45;;;18.40;2.30;;;;;;4976454;28;20077;-82
2024/03/14 12:22:54;;;;;;;0.80;0.43;;;18.40;1.00;;;;;;4977722;28;20143;-83
2024/03/14 12:25:21;;;;;;;0.70;0.70;;;18.40;1.00;;;;;;4976540;28;20062;-82
2024/03/14 12:27:52;;;;;;;0.57;0.47;;;18.30;1.00;;;;;;4978130;28;20694;-81
2024/03/14 12:30:20;;;;;;;0.25;0.25;;;18.10;1.00;;;;;;4977008;28;20054;-82
2024/03/14 12:33:01;;;;;;;0.98;0.60;;;18.00;1.00;;;;;;4973347;28;20078;-82
2024/03/14 12:35:28;;;;;;;1.13;0.60;;;17.90;1.00;;;;;;4969194;28;20494;-81
2024/03/14 12:37:55;;;;;;;1.10;0.60;;;17.80;1.00;;;;;;4970604;28;20051;-82
2024/03/14 12:40:22;;;;;;;1.50;0.90;;;17.80;1.00;;;;;;4967248;28;20910;-83
2024/03/14 12:42:53;;;;;;;1.13;0.60;;;18.00;1.00;;;;;;4966258;28;20405;-83
2024/03/14 12:45:23;;;;;;;1.00;0.60;;;18.30;1.00;;;;;;4945616;28;20078;-83
2024/03/14 12:47:52;;;;;;;1.15;0.63;;;18.50;1.00;;;;;;4976834;28;20050;-84
2024/03/14 12:50:20;;;;;;;0.65;0.50;;;18.60;1.00;;;;;;4944911;28;20464;-81
2024/03/14 12:53:12;;;;;;;0.50;0.50;;;18.60;1.00;;;;;;4947779;28;20059;-81
2024/03/14 12:55:39;;;;;;;0.63;0.50;;;18.60;1.00;;;;;;4962999;28;20046;-81
2024/03/14 12:58:20;;;;;;;1.02;0.60;;;18.70;1.00;;;;;;4942788;28;20055;-81
2024/03/14 13:00:58;;;;;;;0.77;0.75;;;18.80;1.00;;;;;;4957315;28;20501;-82
2024/03/14 13:03:25;;;;;;;0.70;0.50;;;19.10;1.00;;;;;;4973648;28;20633;-81